createdAt,value
2022-08-04T00:02:27.921Z,2.30
2022-08-04T00:05:05.531Z,2.00
2022-08-04T00:07:48.294Z,1.60
2022-08-04T00:10:18.258Z,2.20
2022-08-04T00:12:49.482Z,2.08
2022-08-04T00:15:18.535Z,2.10
2022-08-04T00:17:49.151Z,2.00
2022-08-04T00:20:19.396Z,2.17
2022-08-04T00:22:47.634Z,2.22
2022-08-04T00:25:14.346Z,2.53
2022-08-04T00:27:40.988Z,2.40
2022-08-04T00:30:08.106Z,1.90
2022-08-04T00:32:34.968Z,2.00
2022-08-04T00:35:02.056Z,2.17
2022-08-04T00:37:29.089Z,1.92
2022-08-04T00:39:57.263Z,2.17
2022-08-04T00:42:58.805Z,2.00
2022-08-04T00:46:00.410Z,2.15
2022-08-04T00:48:50.573Z,2.20
2022-08-04T00:51:31.875Z,2.10
2022-08-04T00:54:17.333Z,2.00
2022-08-04T00:56:52.970Z,1.90
2022-08-04T00:59:34.643Z,1.90
2022-08-04T01:02:13.575Z,2.20
2022-08-04T01:05:01.886Z,1.88
2022-08-04T01:07:47.260Z,2.13
2022-08-04T01:10:42.338Z,2.20
2022-08-04T01:13:26.777Z,1.90
2022-08-04T01:16:03.606Z,2.20
2022-08-04T01:19:00.234Z,2.05
2022-08-04T01:21:29.748Z,2.17
2022-08-04T01:24:05.751Z,2.10
2022-08-04T01:26:57.843Z,2.17
2022-08-04T01:29:39.559Z,2.33
2022-08-04T01:32:25.656Z,1.98
2022-08-04T01:35:00.761Z,2.00
2022-08-04T01:37:36.788Z,1.58
2022-08-04T01:40:08.536Z,1.95
2022-08-04T01:42:37.399Z,2.35
2022-08-04T01:45:12.063Z,1.90
2022-08-04T01:47:43.359Z,2.40
2022-08-04T01:50:14.146Z,2.13
2022-08-04T01:52:45.438Z,2.10
2022-08-04T01:55:15.868Z,2.22
2022-08-04T01:57:44.770Z,1.90
2022-08-04T02:00:13.932Z,2.30
2022-08-04T02:02:40.666Z,2.15
2022-08-04T02:05:11.633Z,1.95
2022-08-04T02:07:46.828Z,2.25
2022-08-04T02:10:48.885Z,2.33
2022-08-04T02:13:15.247Z,2.05
2022-08-04T02:15:58.221Z,1.75
2022-08-04T02:18:43.016Z,2.17
2022-08-04T02:21:09.846Z,1.95
2022-08-04T02:23:41.770Z,3.00
2022-08-04T02:26:22.727Z,2.22
2022-08-04T02:28:58.552Z,1.95
2022-08-04T02:31:32.331Z,2.20
2022-08-04T02:34:08.514Z,2.20
2022-08-04T02:36:38.583Z,2.00
2022-08-04T02:39:08.068Z,2.15
2022-08-04T02:41:35.547Z,1.90
2022-08-04T02:44:07.307Z,2.55
2022-08-04T02:46:35.918Z,1.98
2022-08-04T02:49:05.421Z,2.33
2022-08-04T02:51:42.085Z,1.90
2022-08-04T02:54:09.316Z,1.55
2022-08-04T02:56:37.450Z,2.05
2022-08-04T02:59:13.470Z,2.38
2022-08-04T03:01:57.169Z,1.92
2022-08-04T03:04:40.352Z,2.58
2022-08-04T03:07:25.835Z,2.08
2022-08-04T03:10:23.273Z,2.42
2022-08-04T03:13:05.579Z,2.30
2022-08-04T03:15:43.152Z,1.90
2022-08-04T03:18:18.447Z,2.30
2022-08-04T03:21:35.612Z,2.00
2022-08-04T03:24:20.165Z,2.08
2022-08-04T03:27:04.874Z,2.03
2022-08-04T03:29:55.246Z,2.58
2022-08-04T03:32:33.870Z,2.10
2022-08-04T03:35:31.560Z,2.00
2022-08-04T03:38:26.630Z,2.00
2022-08-04T03:41:51.668Z,2.17
2022-08-04T03:44:56.712Z,1.83
2022-08-04T03:48:00.758Z,2.20
2022-08-04T03:51:35.250Z,2.40
2022-08-04T03:54:42.030Z,2.05
2022-08-04T03:57:30.057Z,2.40
2022-08-04T04:00:09.388Z,2.20
2022-08-04T04:02:57.227Z,2.08
2022-08-04T04:05:58.901Z,2.28
2022-08-04T04:08:49.706Z,2.05
2022-08-04T04:11:56.420Z,2.50
2022-08-04T04:14:52.603Z,2.20
2022-08-04T04:17:34.289Z,2.20
2022-08-04T04:20:12.182Z,2.20
2022-08-04T04:22:53.135Z,2.20
2022-08-04T04:25:28.667Z,2.55
2022-08-04T04:28:45.937Z,2.20
2022-08-04T04:31:39.497Z,2.67
2022-08-04T04:34:08.698Z,3.30
2022-08-04T04:36:44.387Z,3.33
2022-08-04T04:39:16.785Z,3.45
2022-08-04T04:42:07.398Z,2.90
2022-08-04T04:45:23.386Z,2.80
2022-08-04T04:48:08.677Z,2.25
2022-08-04T04:51:01.879Z,2.47
2022-08-04T04:54:00.107Z,2.90
2022-08-04T04:56:52.657Z,2.53
2022-08-04T04:59:22.507Z,2.38
2022-08-04T05:02:25.825Z,2.65
2022-08-04T05:05:04.318Z,2.20
2022-08-04T05:07:58.503Z,3.20
2022-08-04T05:10:46.293Z,3.15
2022-08-04T05:14:36.198Z,2.75
2022-08-04T05:17:03.311Z,3.00
2022-08-04T05:19:51.387Z,3.05
2022-08-04T05:22:37.466Z,2.83
2022-08-04T05:25:08.572Z,3.40
2022-08-04T05:27:40.404Z,2.88
2022-08-04T05:30:08.888Z,3.05
2022-08-04T05:32:43.600Z,2.90
2022-08-04T05:35:14.291Z,2.80
2022-08-04T05:38:03.456Z,3.13
2022-08-04T05:40:30.246Z,3.30
2022-08-04T05:42:57.959Z,2.63
2022-08-04T05:45:25.760Z,3.33
2022-08-04T05:47:53.897Z,3.42
2022-08-04T05:50:20.931Z,3.20
2022-08-04T05:52:49.722Z,2.97
2022-08-04T05:55:57.500Z,3.30
2022-08-04T05:58:04.401Z,3.25
2022-08-04T06:00:40.813Z,3.58
2022-08-04T06:03:10.484Z,2.75
2022-08-04T06:05:38.333Z,2.80
2022-08-04T06:08:12.753Z,3.42
2022-08-04T06:10:42.531Z,3.05
2022-08-04T06:13:49.375Z,2.50
2022-08-04T06:16:01.956Z,2.28
2022-08-04T06:18:33.887Z,2.35
2022-08-04T06:21:21.839Z,2.58
2022-08-04T06:23:53.779Z,2.20
2022-08-04T06:26:32.763Z,2.20
2022-08-04T06:29:01.264Z,2.28
2022-08-04T06:32:27.669Z,2.30
2022-08-04T06:34:34.452Z,2.55
2022-08-04T06:37:02.017Z,2.30
2022-08-04T06:39:31.936Z,2.10
2022-08-04T06:42:17.298Z,2.10
2022-08-04T06:44:50.020Z,2.03
2022-08-04T06:47:22.000Z,1.70
2022-08-04T06:51:27.652Z,2.00
2022-08-04T06:52:39.327Z,1.60
2022-08-04T06:55:07.670Z,1.98
2022-08-04T06:57:35.499Z,1.90
2022-08-04T07:00:20.418Z,2.28
2022-08-04T07:02:52.489Z,2.10
2022-08-04T07:05:20.794Z,1.83
2022-08-04T07:07:56.989Z,1.65
2022-08-04T07:10:28.439Z,1.85
2022-08-04T07:12:59.426Z,2.00
2022-08-04T07:15:30.196Z,2.20
2022-08-04T07:18:00.192Z,1.85
2022-08-04T07:20:34.869Z,2.03
2022-08-04T07:23:05.806Z,2.10
2022-08-04T07:26:11.211Z,1.80
2022-08-04T07:28:22.327Z,2.20
2022-08-04T07:30:49.791Z,1.88
2022-08-04T07:33:17.274Z,1.90
2022-08-04T07:36:05.518Z,1.80
2022-08-04T07:38:30.686Z,1.80
2022-08-04T07:40:59.880Z,2.08
2022-08-04T07:43:27.633Z,1.60
2022-08-04T07:45:54.239Z,1.88
2022-08-04T07:48:23.090Z,1.98
2022-08-04T07:50:50.629Z,1.80
2022-08-04T07:53:54.493Z,1.67
2022-08-04T07:56:05.170Z,1.80
2022-08-04T07:58:32.084Z,1.90
2022-08-04T08:00:58.988Z,1.65
2022-08-04T08:03:27.369Z,1.80
2022-08-04T08:06:18.206Z,2.03
2022-08-04T08:08:40.790Z,1.80
2022-08-04T08:11:09.293Z,1.83
2022-08-04T08:13:36.846Z,2.03
2022-08-04T08:16:03.957Z,1.92
2022-08-04T08:18:31.195Z,1.80
2022-08-04T08:20:58.660Z,1.80
2022-08-04T08:23:26.418Z,1.80
2022-08-04T08:25:52.995Z,2.15
2022-08-04T08:28:19.643Z,1.95
2022-08-04T08:30:46.132Z,1.90
2022-08-04T08:33:20.537Z,1.90
2022-08-04T08:35:53.207Z,2.60
2022-08-04T08:38:32.096Z,2.15
2022-08-04T08:41:16.314Z,2.17
2022-08-04T08:44:06.599Z,1.90
2022-08-04T08:46:50.226Z,1.90
2022-08-04T08:50:00.374Z,1.80
2022-08-04T08:52:57.399Z,2.20
2022-08-04T08:55:32.730Z,1.95
2022-08-04T08:58:32.735Z,1.98
2022-08-04T09:01:27.602Z,1.98
2022-08-04T09:04:28.848Z,1.90
2022-08-04T09:12:52.161Z,1.63
2022-08-04T09:15:41.787Z,1.90
2022-08-04T09:18:27.920Z,1.35
2022-08-04T09:21:02.871Z,1.83
2022-08-04T09:23:59.430Z,1.90
2022-08-04T09:26:59.787Z,1.63
2022-08-04T09:29:48.920Z,1.60
2022-08-04T09:32:41.637Z,1.55
2022-08-04T09:35:13.540Z,1.50
2022-08-04T09:37:48.154Z,1.50
2022-08-04T09:40:29.356Z,1.70
2022-08-04T09:44:42.981Z,1.70
2022-08-04T09:46:41.565Z,1.50
2022-08-04T09:49:21.301Z,1.70
2022-08-04T09:51:57.597Z,1.58
2022-08-04T09:54:33.820Z,1.40
2022-08-04T09:57:20.216Z,1.37
2022-08-04T10:00:02.280Z,1.63
2022-08-04T10:02:35.089Z,2.00
2022-08-04T10:05:05.512Z,1.75
2022-08-04T10:07:35.088Z,1.88
2022-08-04T10:10:42.622Z,1.63
2022-08-04T10:13:42.402Z,1.25
2022-08-04T10:16:19.897Z,1.67
2022-08-04T10:19:10.809Z,1.40
2022-08-04T10:22:27.442Z,1.48
2022-08-04T10:25:05.193Z,1.60
2022-08-04T10:27:58.939Z,1.50
2022-08-04T10:30:26.536Z,1.45
2022-08-04T10:33:04.047Z,1.65
2022-08-04T10:35:38.626Z,1.60
2022-08-04T10:38:23.997Z,1.30
2022-08-04T10:41:11.898Z,1.83
2022-08-04T10:43:59.749Z,1.50
2022-08-04T10:46:47.620Z,1.52
2022-08-04T10:49:24.140Z,1.80
2022-08-04T10:51:57.752Z,1.45
2022-08-04T10:57:26.129Z,1.40
2022-08-04T11:00:11.878Z,1.58
2022-08-04T11:05:43.873Z,1.40
2022-08-04T11:08:36.674Z,1.60
2022-08-04T11:11:15.025Z,1.30
2022-08-04T11:14:10.538Z,1.42
2022-08-04T11:16:43.104Z,1.65
2022-08-04T11:19:44.695Z,1.40
2022-08-04T11:22:25.397Z,1.97
2022-08-04T11:25:21.760Z,1.40
2022-08-04T11:27:59.992Z,1.40
2022-08-04T11:30:34.506Z,1.50
2022-08-04T11:33:20.780Z,1.40
2022-08-04T11:35:52.931Z,1.70
2022-08-04T11:38:32.441Z,1.85
2022-08-04T11:41:07.229Z,1.60
2022-08-04T11:44:02.302Z,1.65
2022-08-04T11:46:42.919Z,1.30
2022-08-04T11:49:22.721Z,1.88
2022-08-04T11:51:52.067Z,1.48
2022-08-04T11:54:19.846Z,1.45
2022-08-04T11:56:46.878Z,1.65
2022-08-04T11:59:14.052Z,1.67
2022-08-04T12:01:59.473Z,2.00
2022-08-04T12:04:42.010Z,1.60
2022-08-04T12:07:40.472Z,1.50
2022-08-04T12:10:41.345Z,1.67
2022-08-04T12:13:31.349Z,1.48
2022-08-04T12:16:01.931Z,1.80
2022-08-04T12:18:39.581Z,1.95
2022-08-04T12:21:12.200Z,1.63
2022-08-04T12:23:43.891Z,1.90
2022-08-04T12:26:17.292Z,1.90
2022-08-04T12:29:09.056Z,1.63
2022-08-04T12:31:41.813Z,1.92
2022-08-04T12:34:30.881Z,1.65
2022-08-04T12:37:12.924Z,1.42
2022-08-04T12:40:28.750Z,1.60
2022-08-04T12:45:50.680Z,1.60
2022-08-04T12:48:21.366Z,1.55
2022-08-04T12:50:51.767Z,1.63
2022-08-04T12:53:32.061Z,1.80
2022-08-04T12:56:01.495Z,2.08
2022-08-04T12:58:43.222Z,2.00
2022-08-04T13:02:07.410Z,1.80
2022-08-04T13:04:21.963Z,2.10
2022-08-04T13:07:05.329Z,1.73
2022-08-04T13:09:34.057Z,1.88
2022-08-04T13:12:12.830Z,1.80
2022-08-04T13:14:43.591Z,2.28
2022-08-04T13:17:11.614Z,1.65
2022-08-04T13:19:41.585Z,1.67
2022-08-04T13:22:09.294Z,1.90
2022-08-04T13:24:56.539Z,1.88
2022-08-04T13:27:26.216Z,2.17
2022-08-04T13:30:00.353Z,2.03
2022-08-04T13:32:30.863Z,2.40
2022-08-04T13:35:01.494Z,2.47
2022-08-04T13:37:35.215Z,3.00
2022-08-04T13:40:09.311Z,3.22
2022-08-04T13:42:37.390Z,2.55
2022-08-04T13:45:07.094Z,2.53
2022-08-04T13:47:38.244Z,2.95
2022-08-04T13:50:16.441Z,2.70
2022-08-04T13:52:44.384Z,2.97
2022-08-04T13:55:26.626Z,2.60
2022-08-04T13:57:57.676Z,2.53
2022-08-04T14:00:30.024Z,2.65
2022-08-04T14:03:19.228Z,2.50
2022-08-04T14:06:15.142Z,2.50
2022-08-04T14:09:13.089Z,2.30
2022-08-04T14:12:10.071Z,2.45
2022-08-04T14:14:36.742Z,2.30
2022-08-04T14:17:20.016Z,1.98
2022-08-04T14:19:58.410Z,2.28
2022-08-04T14:22:30.634Z,2.05
2022-08-04T14:25:16.946Z,2.78
2022-08-04T14:27:54.655Z,2.40
2022-08-04T14:30:29.356Z,2.28
2022-08-04T14:34:01.724Z,2.93
2022-08-04T14:38:50.692Z,2.20
2022-08-04T14:41:20.099Z,2.47
2022-08-04T14:43:56.613Z,2.15
2022-08-04T14:46:30.206Z,2.08
2022-08-04T14:49:13.243Z,1.85
2022-08-04T14:51:44.777Z,2.35
2022-08-04T14:54:18.588Z,2.00
2022-08-04T14:56:54.580Z,1.88
2022-08-04T14:59:22.203Z,1.88
2022-08-04T15:02:01.041Z,2.00
2022-08-04T15:04:29.852Z,2.10
2022-08-04T15:06:56.919Z,2.33
2022-08-04T15:09:24.400Z,1.70
2022-08-04T15:11:50.904Z,2.05
2022-08-04T15:14:36.429Z,1.73
2022-08-04T15:17:11.451Z,1.85
2022-08-04T15:19:39.744Z,1.90
2022-08-04T15:22:06.945Z,1.45
2022-08-04T15:24:43.933Z,1.70
2022-08-04T15:27:16.452Z,1.77
2022-08-04T15:30:00.528Z,1.60
2022-08-04T15:32:53.277Z,1.60
2022-08-04T15:35:32.017Z,1.80
2022-08-04T15:38:24.128Z,1.45
2022-08-04T15:41:08.002Z,1.45
2022-08-04T15:44:05.606Z,1.70
2022-08-04T15:47:10.250Z,1.45
2022-08-04T15:49:39.475Z,1.30
2022-08-04T15:52:09.624Z,1.38
2022-08-04T15:54:39.462Z,1.40
2022-08-04T15:57:09.796Z,1.60
2022-08-04T16:00:01.734Z,1.67
2022-08-04T16:02:34.616Z,1.55
2022-08-04T16:05:17.598Z,1.30
2022-08-04T16:07:59.925Z,1.50
2022-08-04T16:10:35.456Z,1.50
2022-08-04T16:13:15.089Z,1.77
2022-08-04T16:15:46.721Z,1.50
2022-08-04T16:18:26.658Z,1.30
2022-08-04T16:21:01.363Z,1.17
2022-08-04T16:23:59.257Z,1.20
2022-08-04T16:26:46.112Z,1.30
2022-08-04T16:29:22.654Z,1.90
2022-08-04T16:32:04.619Z,1.30
2022-08-04T16:34:48.500Z,1.73
2022-08-04T16:37:18.937Z,1.42
2022-08-04T16:39:50.197Z,1.30
2022-08-04T16:42:30.343Z,1.45
2022-08-04T16:45:09.179Z,1.40
2022-08-04T16:47:47.632Z,1.50
2022-08-04T16:50:15.803Z,1.10
2022-08-04T16:52:50.501Z,1.40
2022-08-04T16:55:22.302Z,1.23
2022-08-04T16:57:50.360Z,1.10
2022-08-04T17:00:18.743Z,1.50
2022-08-04T17:02:46.098Z,1.45
2022-08-04T17:05:39.312Z,1.40
2022-08-04T17:10:54.975Z,1.20
2022-08-04T17:14:02.466Z,1.40
2022-08-04T17:16:21.061Z,1.73
2022-08-04T17:18:53.284Z,1.52
2022-08-04T17:21:29.003Z,1.40
2022-08-04T17:26:45.363Z,1.40
2022-08-04T17:29:19.864Z,1.73
2022-08-04T17:31:46.777Z,1.70
2022-08-04T17:34:19.167Z,1.35
2022-08-04T17:36:47.593Z,1.50
2022-08-04T17:39:21.501Z,1.60
2022-08-04T17:41:54.998Z,1.67
2022-08-04T17:44:21.977Z,1.88
2022-08-04T17:46:49.708Z,1.88
2022-08-04T17:49:19.310Z,1.63
2022-08-04T17:52:05.434Z,2.03
2022-08-04T17:54:39.358Z,1.98
2022-08-04T17:57:22.281Z,1.80
2022-08-04T17:59:57.970Z,1.80
2022-08-04T18:05:31.866Z,2.00
2022-08-04T18:08:39.481Z,1.90
2022-08-04T18:11:02.004Z,1.77
2022-08-04T18:13:29.026Z,1.80
2022-08-04T18:16:06.251Z,1.80
2022-08-04T18:18:41.339Z,2.05
2022-08-04T18:21:15.573Z,1.90
2022-08-04T18:23:50.869Z,1.67
2022-08-04T18:26:18.021Z,1.73
2022-08-04T18:28:44.576Z,2.00
2022-08-04T18:31:11.227Z,1.70
2022-08-04T18:33:42.977Z,1.50
2022-08-04T18:36:33.428Z,1.52
2022-08-04T18:39:12.151Z,1.73
2022-08-04T18:42:01.028Z,1.70
2022-08-04T18:44:29.236Z,1.83
2022-08-04T18:46:56.967Z,1.83
2022-08-04T18:51:00.121Z,1.60
2022-08-04T18:52:16.075Z,2.10
2022-08-04T18:54:42.935Z,1.98
2022-08-04T18:59:56.546Z,2.03
2022-08-04T19:02:26.406Z,1.95
2022-08-04T19:04:53.236Z,2.05
2022-08-04T19:10:06.812Z,2.15
2022-08-04T19:12:50.522Z,1.73
2022-08-04T19:15:19.245Z,2.13
2022-08-04T19:17:57.353Z,1.90
2022-08-04T19:20:28.248Z,1.80
2022-08-04T19:24:27.911Z,1.67
2022-08-04T19:26:03.011Z,2.00
2022-08-04T19:28:35.203Z,2.10
2022-08-04T19:31:07.195Z,2.20
2022-08-04T19:33:58.419Z,2.40
2022-08-04T19:36:27.591Z,2.47
2022-08-04T19:38:57.753Z,2.25
2022-08-04T19:41:26.528Z,2.05
2022-08-04T19:43:53.874Z,1.92
2022-08-04T19:46:21.399Z,2.22
2022-08-04T19:48:59.745Z,2.60
2022-08-04T19:51:28.255Z,2.58
2022-08-04T19:54:02.345Z,1.98
2022-08-04T19:56:40.552Z,2.40
2022-08-04T19:59:08.884Z,2.30
2022-08-04T20:01:43.770Z,2.25
2022-08-04T20:04:12.553Z,2.65
2022-08-04T20:06:39.410Z,2.33
2022-08-04T20:09:25.511Z,2.47
2022-08-04T20:11:53.009Z,2.53
2022-08-04T20:14:19.613Z,2.47
2022-08-04T20:16:58.877Z,2.50
2022-08-04T20:19:25.712Z,1.85
2022-08-04T20:24:49.185Z,1.73
2022-08-04T20:27:21.322Z,1.30
2022-08-04T20:29:50.938Z,1.10
2022-08-04T20:35:08.548Z,1.00
2022-08-04T20:37:55.513Z,0.80
2022-08-04T20:40:27.347Z,1.00
2022-08-04T20:42:53.926Z,1.13
2022-08-04T20:45:23.753Z,1.00
2022-08-04T20:48:10.297Z,0.80
2022-08-04T20:50:36.760Z,1.38
2022-08-04T20:53:05.666Z,1.17
2022-08-04T20:55:54.682Z,1.10
2022-08-04T20:58:27.337Z,0.93
2022-08-04T21:00:55.065Z,1.08
2022-08-04T21:03:38.797Z,1.10
2022-08-04T21:06:08.559Z,1.20
2022-08-04T21:08:35.089Z,1.00
2022-08-04T21:11:03.148Z,1.38
2022-08-04T21:13:52.398Z,1.33
2022-08-04T21:16:54.800Z,1.00
2022-08-04T21:19:06.649Z,1.17
2022-08-04T21:21:40.242Z,1.30
2022-08-04T21:24:07.749Z,1.20
2022-08-04T21:26:35.171Z,1.30
2022-08-04T21:29:04.535Z,1.23
2022-08-04T21:31:32.627Z,1.10
2022-08-04T21:34:16.450Z,1.20
2022-08-04T21:39:32.613Z,1.25
2022-08-04T21:42:38.014Z,1.17
2022-08-04T21:44:46.027Z,1.08
2022-08-04T21:47:23.478Z,1.00
2022-08-04T21:49:55.878Z,1.30
2022-08-04T21:52:24.136Z,1.17
2022-08-04T21:54:54.771Z,1.30
2022-08-04T21:57:24.808Z,1.00
2022-08-04T21:59:51.620Z,1.33
2022-08-04T22:02:18.170Z,1.33
2022-08-04T22:04:44.778Z,1.17
2022-08-04T22:07:11.327Z,1.60
2022-08-04T22:09:41.610Z,1.45
2022-08-04T22:12:20.966Z,1.30
2022-08-04T22:14:50.446Z,1.50
2022-08-04T22:17:24.808Z,1.23
2022-08-04T22:19:55.723Z,1.50
2022-08-04T22:22:25.440Z,1.25
2022-08-04T22:24:54.590Z,1.30
2022-08-04T22:27:39.850Z,1.45
2022-08-04T22:30:16.737Z,1.35
2022-08-04T22:32:44.391Z,1.50
2022-08-04T22:35:42.826Z,1.33
2022-08-04T22:38:07.402Z,1.33
2022-08-04T22:40:43.912Z,1.92
2022-08-04T22:43:31.173Z,1.50
2022-08-04T22:45:59.673Z,1.58
2022-08-04T22:48:28.314Z,1.70
2022-08-04T22:50:58.728Z,1.52
2022-08-04T22:53:25.307Z,1.85
2022-08-04T22:56:07.359Z,1.77
2022-08-04T22:58:40.256Z,1.90
2022-08-04T23:01:07.706Z,2.00
2022-08-04T23:03:37.070Z,1.85
2022-08-04T23:06:10.802Z,1.85
2022-08-04T23:08:38.465Z,1.60
2022-08-04T23:11:10.591Z,1.58
2022-08-04T23:13:37.761Z,1.90
2022-08-04T23:16:06.494Z,1.85
2022-08-04T23:18:36.780Z,2.20
2022-08-04T23:21:09.128Z,2.00
2022-08-04T23:23:36.603Z,1.73
2022-08-04T23:26:15.312Z,1.75
2022-08-04T23:28:42.570Z,1.90
2022-08-04T23:31:10.238Z,1.98
2022-08-04T23:33:49.298Z,1.67
2022-08-04T23:36:18.591Z,2.00
2022-08-04T23:38:45.450Z,2.00
2022-08-04T23:41:17.213Z,1.70
2022-08-04T23:43:55.079Z,2.00
2022-08-04T23:46:22.661Z,1.80
2022-08-04T23:48:49.615Z,2.10
2022-08-04T23:51:16.622Z,2.28
2022-08-04T23:54:02.299Z,2.00
2022-08-04T23:56:32.042Z,2.05
2022-08-04T23:59:00.288Z,2.15
